This is the latest recevied weather packets stored in our database for station/object KD4EG. If no packets are shown the sender has not sent any weather packets the latest 10 day(s).
| Time | Temp. | Humidity | Pressure | Rain* | Wind** | Luminosity | Snow |
|---|---|---|---|---|---|---|---|
| 1778007413 | 26.67° C | 30% | 1014 hPa | 0 mm | - | 526 W/m² | - |
| 1778007109 | 27.22° C | 34% | 1014.3 hPa | 0 mm | - | 660 W/m² | - |
| 1778006805 | 27.22° C | 36% | 1014.3 hPa | 0 mm | - | 691 W/m² | - |
| 1778006503 | 26.67° C | 39% | 1014.5 hPa | 0 mm | - | 774 W/m² | - |
| 1778006200 | 26.11° C | 39% | 1014.5 hPa | 0 mm | - | 580 W/m² | - |
| 1778005897 | 26.11° C | 39% | 1014.7 hPa | 0 mm | - | 468 W/m² | - |
| 1778005593 | 25.56° C | 41% | 1014.7 hPa | 0 mm | - | 492 W/m² | - |
| 1778005290 | 25.56° C | 41% | 1014.9 hPa | 0 mm | - | 572 W/m² | - |
| 1778004987 | 25.56° C | 42% | 1014.8 hPa | 0 mm | - | 506 W/m² | - |
| 1778004684 | 25.56° C | 42% | 1015.4 hPa | 0 mm | - | 318 W/m² | - |
| 1778004380 | 25.56° C | 41% | 1015 hPa | 0 mm | - | 325 W/m² | - |
| 1778004078 | 25.56° C | 41% | 1015.1 hPa | 0 mm | - | 516 W/m² | - |
| 1778003774 | 26.11° C | 36% | 1015 hPa | 0 mm | - | 266 W/m² | - |
| 1778003470 | 26.11° C | 36% | 1015.2 hPa | 0 mm | - | 577 W/m² | - |
| 1778003167 | 25.56° C | 37% | 1015.1 hPa | 0 mm | - | 619 W/m² | - |
| 1778002863 | 26.11° C | 35% | 1015.2 hPa | 0 mm | - | 546 W/m² | - |
| 1778002560 | 25.56° C | 37% | 1015.5 hPa | 0 mm | - | 587 W/m² | - |
| 1778002257 | 26.11° C | 36% | 1015.4 hPa | 0 mm | - | 443 W/m² | - |
| 1778001954 | 25.56° C | 39% | 1015.4 hPa | 0 mm | - | 604 W/m² | - |
| 1778001651 | 25.56° C | 36% | 1015.6 hPa | 0 mm | - | 614 W/m² | - |
| 1778001345 | 25.56° C | 36% | 1015.6 hPa | 0 mm | - | 589 W/m² | - |
| 1778001043 | 25° C | 37% | 1015.6 hPa | 0 mm | - | 570 W/m² | - |
| 1778000740 | 25° C | 38% | 1015.9 hPa | 0 mm | - | 641 W/m² | - |
| 1778000436 | 25.56° C | 37% | 1016.4 hPa | 0 mm | - | 689 W/m² | - |
| 1778000131 | 25° C | 39% | 1016.3 hPa | 0 mm | - | 664 W/m² | - |
* Rain latest hour (hover to see other rain measurements)
** Current wind speed in m/s (hover to see current wind gust speed)